Time;durP1;ratioP1;P1;durP2;ratioP2;P2;SDS_P1;SDS_P2;PMS_P1;PMS_P2;Temp;Humidity;BMP_temperature;BMP_pressure;BME280_temperature;BME280_humidity;BME280_pressure;Samples;Min_cycle;Max_cycle;Signal;HPM_P1;HPM_P2
2023/08/29 00:01:47;;;;;;;12.02;7.75;;;15.60;77.50;;;;;;5030629;28;20387;-72
2023/08/29 00:04:14;;;;;;;11.20;8.00;;;15.60;78.90;;;;;;5030894;28;20434;-72
2023/08/29 00:06:40;;;;;;;12.45;7.78;;;15.60;80.50;;;;;;5031098;28;20386;-72
2023/08/29 00:09:05;;;;;;;10.48;8.10;;;15.50;81.10;;;;;;5030600;28;20387;-72
2023/08/29 00:11:31;;;;;;;12.77;8.87;;;15.50;82.00;;;;;;5030547;28;20407;-72
2023/08/29 00:13:56;;;;;;;13.47;9.03;;;15.50;82.70;;;;;;5030440;28;20399;-72
2023/08/29 00:16:22;;;;;;;11.53;7.97;;;15.60;81.50;;;;;;5030633;28;20395;-72
2023/08/29 00:18:48;;;;;;;17.85;9.45;;;15.90;77.60;;;;;;5030976;28;20411;-72
2023/08/29 00:21:13;;;;;;;14.32;9.10;;;16.10;72.70;;;;;;5030459;28;20732;-72
2023/08/29 00:23:39;;;;;;;12.13;9.40;;;16.20;70.80;;;;;;5030845;28;20892;-72
2023/08/29 00:26:04;;;;;;;13.70;9.23;;;16.20;71.60;;;;;;5031844;28;20383;-73
2023/08/29 00:28:30;;;;;;;15.20;9.90;;;16.00;72.70;;;;;;5034067;28;20401;-72
2023/08/29 00:30:56;;;;;;;14.40;9.38;;;16.00;73.80;;;;;;5036535;28;20496;-72
2023/08/29 00:33:21;;;;;;;13.90;9.23;;;16.00;74.50;;;;;;5037156;28;20386;-71
2023/08/29 00:35:47;;;;;;;13.20;9.93;;;15.80;76.10;;;;;;5035961;28;20386;-71
2023/08/29 00:38:13;;;;;;;14.13;10.45;;;15.80;76.50;;;;;;5035120;28;20721;-71
2023/08/29 00:40:39;;;;;;;13.27;9.95;;;15.70;79.20;;;;;;5034776;28;20391;-71
2023/08/29 00:43:05;;;;;;;11.90;9.90;;;15.50;82.10;;;;;;5033787;28;20391;-72
2023/08/29 00:45:33;;;;;;;15.97;11.50;;;15.20;85.30;;;;;;5033779;28;20402;-72
2023/08/29 00:48:00;;;;;;;15.85;10.57;;;15.20;88.00;;;;;;5033964;28;20426;-71
2023/08/29 00:50:26;;;;;;;13.35;10.82;;;15.20;87.50;;;;;;5033862;28;20402;-71
2023/08/29 00:52:56;;;;;;;15.50;11.45;;;15.20;89.60;;;;;;5033543;28;20393;-71
2023/08/29 00:55:23;;;;;;;13.35;10.18;;;15.20;89.30;;;;;;5034130;28;20473;-71
2023/08/29 00:57:55;;;;;;;14.40;10.70;;;15.20;87.30;;;;;;5033855;28;20918;-71
2023/08/29 01:00:25;;;;;;;18.25;11.70;;;15.00;89.90;;;;;;5033818;28;20390;-72
2023/08/29 01:02:51;;;;;;;17.08;10.88;;;14.90;92.30;;;;;;5033474;28;20430;-71
2023/08/29 01:05:17;;;;;;;15.00;11.23;;;14.80;95.80;;;;;;5033608;28;20411;-71
2023/08/29 01:07:42;;;;;;;14.10;11.10;;;14.80;96.00;;;;;;5033587;28;20448;-71
2023/08/29 01:10:08;;;;;;;16.10;10.70;;;14.90;95.30;;;;;;5033285;28;20924;-71
2023/08/29 01:12:45;;;;;;;15.43;10.50;;;15.20;89.30;;;;;;5048007;22;20383;-75
2023/08/29 01:15:21;;;;;;;15.67;10.90;;;15.30;85.80;;;;;;5054033;28;20862;-77
2023/08/29 01:17:53;;;;;;;14.38;10.20;;;15.20;86.90;;;;;;5053835;28;20374;-76
2023/08/29 01:20:21;;;;;;;15.88;11.23;;;15.10;86.90;;;;;;5053564;28;20397;-75
2023/08/29 01:23:06;;;;;;;15.27;11.35;;;15.10;88.20;;;;;;5053280;28;20382;-75
2023/08/29 01:25:42;;;;;;;16.15;10.65;;;15.10;87.40;;;;;;5053501;28;20377;-75
2023/08/29 01:28:08;;;;;;;14.98;11.10;;;15.20;85.90;;;;;;5053807;28;20786;-75
2023/08/29 01:30:35;;;;;;;15.90;11.33;;;15.20;84.40;;;;;;5053170;28;20412;-75
2023/08/29 01:33:00;;;;;;;15.73;10.45;;;15.00;86.10;;;;;;5053073;28;20381;-75
2023/08/29 01:35:26;;;;;;;17.23;12.53;;;14.70;92.00;;;;;;5053277;28;20446;-76
2023/08/29 01:37:52;;;;;;;16.50;12.50;;;14.70;96.50;;;;;;5052379;28;20386;-75
2023/08/29 01:40:17;;;;;;;19.30;12.63;;;14.70;97.30;;;;;;5053142;28;20394;-76
2023/08/29 01:42:43;;;;;;;17.35;12.23;;;14.60;97.90;;;;;;5034915;28;20416;-76
2023/08/29 01:45:09;;;;;;;17.50;12.68;;;14.50;99.90;;;;;;5053142;28;20479;-76
2023/08/29 01:47:34;;;;;;;17.45;12.23;;;14.40;99.90;;;;;;5053231;28;20390;-76
2023/08/29 01:50:03;;;;;;;17.08;12.10;;;14.40;99.90;;;;;;5052737;28;20494;-75
2023/08/29 01:52:30;;;;;;;16.25;12.30;;;14.60;99.90;;;;;;5052685;28;20428;-75
2023/08/29 01:54:56;;;;;;;16.35;12.23;;;14.80;97.70;;;;;;5052904;28;20388;-75
2023/08/29 01:57:26;;;;;;;14.40;11.02;;;14.90;96.00;;;;;;5054349;28;20383;-75
2023/08/29 01:59:52;;;;;;;17.55;12.82;;;14.80;98.60;;;;;;5053915;28;20402;-75
2023/08/29 02:02:19;;;;;;;18.67;12.82;;;14.80;98.80;;;;;;5052841;28;20388;-75
2023/08/29 02:04:44;;;;;;;16.23;13.52;;;14.70;99.90;;;;;;5053783;28;20411;-75
2023/08/29 02:07:10;;;;;;;18.13;13.27;;;14.80;99.90;;;;;;5052616;28;20772;-75
2023/08/29 02:09:35;;;;;;;15.10;12.00;;;15.00;96.90;;;;;;5052740;28;20389;-75
2023/08/29 02:12:01;;;;;;;16.07;11.93;;;15.00;93.30;;;;;;5052429;28;20390;-75
2023/08/29 02:14:26;;;;;;;15.70;13.03;;;15.10;93.30;;;;;;5052881;28;20416;-75
2023/08/29 02:16:52;;;;;;;17.40;13.00;;;15.00;94.20;;;;;;5053119;28;21074;-75
2023/08/29 02:19:17;;;;;;;19.43;13.30;;;14.90;96.20;;;;;;5053385;28;20377;-75
2023/08/29 02:21:43;;;;;;;15.50;12.50;;;14.80;97.90;;;;;;5052262;28;20389;-74
2023/08/29 02:24:08;;;;;;;15.80;12.00;;;14.80;99.50;;;;;;5052361;28;20568;-75
2023/08/29 02:26:34;;;;;;;16.38;12.35;;;14.80;99.90;;;;;;5052330;28;20400;-75
2023/08/29 02:29:01;;;;;;;17.30;12.55;;;14.70;99.90;;;;;;5051500;28;20508;-75
2023/08/29 02:31:27;;;;;;;15.73;11.70;;;14.60;99.90;;;;;;5051828;28;20496;-76
2023/08/29 02:33:53;;;;;;;17.77;12.15;;;14.60;99.90;;;;;;5052137;28;20758;-76
2023/08/29 02:36:19;;;;;;;14.30;11.20;;;14.50;99.90;;;;;;5051902;28;20378;-75
2023/08/29 02:38:45;;;;;;;14.90;10.83;;;14.50;99.90;;;;;;5052001;28;20388;-75
2023/08/29 02:41:11;;;;;;;13.93;10.50;;;14.50;99.90;;;;;;5051833;28;20378;-74
2023/08/29 02:43:37;;;;;;;16.25;11.50;;;14.60;99.90;;;;;;5051833;28;20403;-75
2023/08/29 02:46:03;;;;;;;16.35;11.63;;;14.50;99.90;;;;;;5033958;28;20394;-74
2023/08/29 02:48:29;;;;;;;17.63;11.55;;;14.50;99.90;;;;;;5052063;28;20389;-75
2023/08/29 02:50:55;;;;;;;17.20;12.13;;;14.50;99.90;;;;;;5050998;28;20467;-74
2023/08/29 02:53:20;;;;;;;18.65;12.05;;;14.50;99.90;;;;;;5051701;28;20454;-75
2023/08/29 02:55:49;;;;;;;18.23;12.23;;;14.50;99.90;;;;;;5052060;28;20382;-76
2023/08/29 02:58:15;;;;;;;17.13;12.88;;;14.60;99.90;;;;;;5052232;28;20476;-76
2023/08/29 03:00:40;;;;;;;24.63;13.20;;;14.90;99.90;;;;;;5051757;28;20480;-75
2023/08/29 03:03:06;;;;;;;18.57;12.57;;;14.70;99.50;;;;;;5051229;28;20704;-75
2023/08/29 03:05:32;;;;;;;16.23;13.13;;;14.80;99.90;;;;;;5050881;28;20408;-75
2023/08/29 03:07:59;;;;;;;16.45;13.00;;;14.80;99.30;;;;;;5051481;28;20408;-77
2023/08/29 03:10:24;;;;;;;18.08;13.65;;;15.00;96.00;;;;;;5049836;28;20809;-77
2023/08/29 03:12:51;;;;;;;20.43;14.90;;;15.20;90.60;;;;;;5055963;28;20401;-78
2023/08/29 03:15:17;;;;;;;21.55;14.63;;;15.30;88.00;;;;;;5057138;28;20374;-78
2023/08/29 03:17:43;;;;;;;19.27;15.35;;;15.30;87.40;;;;;;5070315;28;20412;-77
2023/08/29 03:20:10;;;;;;;23.85;15.77;;;15.30;87.10;;;;;;5069769;28;20389;-78
2023/08/29 03:22:36;;;;;;;22.35;15.95;;;15.30;86.30;;;;;;5071140;28;20384;-79
2023/08/29 03:25:02;;;;;;;22.27;16.00;;;15.30;85.30;;;;;;5067285;28;20421;-77
2023/08/29 03:27:27;;;;;;;19.63;16.30;;;15.30;85.60;;;;;;5046828;28;20385;-77
2023/08/29 03:29:54;;;;;;;23.30;16.73;;;15.30;86.70;;;;;;5065292;28;20467;-78
2023/08/29 03:32:19;;;;;;;21.73;16.03;;;15.20;87.30;;;;;;5066081;28;20393;-77
2023/08/29 03:34:45;;;;;;;23.17;16.40;;;15.10;89.40;;;;;;5056917;28;20489;-78
2023/08/29 03:37:11;;;;;;;19.40;15.27;;;15.20;88.90;;;;;;5047661;28;20391;-79
2023/08/29 03:39:36;;;;;;;21.53;15.90;;;15.20;87.60;;;;;;5046878;28;20378;-78
2023/08/29 03:42:02;;;;;;;23.60;17.50;;;15.20;89.30;;;;;;5047210;28;20444;-78
2023/08/29 03:44:27;;;;;;;23.70;17.77;;;15.00;89.70;;;;;;5027675;28;20414;-77
2023/08/29 03:46:53;;;;;;;24.10;17.63;;;14.90;93.70;;;;;;5044752;28;20391;-78
2023/08/29 03:49:18;;;;;;;22.07;16.80;;;15.00;92.50;;;;;;5044653;28;20457;-78
2023/08/29 03:51:45;;;;;;;28.23;18.83;;;14.90;95.40;;;;;;5046477;28;20498;-77
2023/08/29 03:54:10;;;;;;;24.52;19.05;;;14.90;95.20;;;;;;5046485;28;20675;-77
2023/08/29 03:56:36;;;;;;;22.27;17.50;;;15.00;95.30;;;;;;5046815;28;20387;-78
2023/08/29 03:59:04;;;;;;;23.92;17.63;;;15.10;91.30;;;;;;5042453;28;20426;-77
2023/08/29 04:01:29;;;;;;;26.25;19.38;;;15.10;90.90;;;;;;5034240;28;20391;-78
2023/08/29 04:03:55;;;;;;;29.20;20.33;;;15.20;89.40;;;;;;5032826;28;20402;-78
2023/08/29 04:06:21;;;;;;;26.47;19.20;;;15.20;88.00;;;;;;5033300;28;20386;-78
2023/08/29 04:08:46;;;;;;;28.53;20.63;;;15.20;89.10;;;;;;5033945;28;20429;-78
2023/08/29 04:11:12;;;;;;;27.10;20.20;;;15.20;88.70;;;;;;5014659;28;20510;-77
2023/08/29 04:13:37;;;;;;;31.57;19.93;;;15.10;89.00;;;;;;5031923;28;20460;-78
2023/08/29 04:16:03;;;;;;;28.55;20.80;;;15.10;90.10;;;;;;5032404;28;20522;-77
2023/08/29 04:18:33;;;;;;;27.95;21.02;;;15.00;91.90;;;;;;5033408;28;20383;-78
2023/08/29 04:20:59;;;;;;;28.35;20.67;;;15.00;93.90;;;;;;5015875;28;20922;-78
2023/08/29 04:23:25;;;;;;;30.40;20.25;;;15.00;93.00;;;;;;5034506;28;20402;-78
2023/08/29 04:25:58;;;;;;;29.73;21.25;;;14.90;95.60;;;;;;5032679;28;20387;-78
2023/08/29 04:28:23;;;;;;;31.20;22.60;;;14.90;97.00;;;;;;5031672;28;20394;-78
2023/08/29 04:30:49;;;;;;;31.02;22.55;;;14.70;99.10;;;;;;5032317;28;20403;-79
2023/08/29 04:33:14;;;;;;;32.80;22.67;;;14.60;99.90;;;;;;5033382;28;20387;-79
2023/08/29 04:35:40;;;;;;;32.70;22.87;;;14.80;99.90;;;;;;5033895;28;20388;-79
2023/08/29 04:38:05;;;;;;;32.00;23.93;;;14.70;99.90;;;;;;5016473;28;20433;-79
2023/08/29 04:40:31;;;;;;;32.97;23.05;;;14.70;99.90;;;;;;5033622;28;20391;-79
2023/08/29 04:42:57;;;;;;;30.52;22.48;;;14.80;99.90;;;;;;5037588;28;20441;-79
2023/08/29 04:45:23;;;;;;;30.50;21.50;;;14.90;99.00;;;;;;5046004;28;20418;-79
2023/08/29 04:47:48;;;;;;;26.25;20.60;;;15.00;96.00;;;;;;5037568;28;20562;-79
2023/08/29 04:50:14;;;;;;;32.65;23.20;;;15.00;94.80;;;;;;5037115;28;20879;-78
2023/08/29 04:52:40;;;;;;;28.02;22.38;;;14.80;97.00;;;;;;5050415;28;20383;-80
2023/08/29 04:55:06;;;;;;;33.08;23.55;;;14.70;99.90;;;;;;5051681;28;20951;-80
2023/08/29 04:57:34;;;;;;;34.10;23.17;;;14.80;99.90;;;;;;5039081;28;20406;-77
2023/08/29 05:00:00;;;;;;;35.33;23.10;;;14.70;99.90;;;;;;5037433;28;20387;-78
2023/08/29 05:02:26;;;;;;;30.70;22.70;;;14.60;99.90;;;;;;5045415;28;20413;-77
2023/08/29 05:04:52;;;;;;;32.05;21.90;;;14.70;99.90;;;;;;5023496;28;20438;-78
2023/08/29 05:07:18;;;;;;;28.85;21.10;;;14.90;98.20;;;;;;5042143;28;20450;-78
2023/08/29 05:09:44;;;;;;;34.35;20.80;;;15.10;93.10;;;;;;5043726;28;20383;-78
2023/08/29 05:12:10;;;;;;;28.55;19.60;;;15.20;88.80;;;;;;5026362;28;20425;-77
2023/08/29 05:14:38;;;;;;;29.50;20.40;;;15.30;86.40;;;;;;5044904;28;20407;-78
2023/08/29 05:17:04;;;;;;;28.77;20.10;;;15.20;86.60;;;;;;5054244;28;20436;-79
2023/08/29 05:19:29;;;;;;;27.58;20.02;;;15.30;85.30;;;;;;5043868;28;20390;-77
2023/08/29 05:21:55;;;;;;;25.90;19.73;;;15.30;84.70;;;;;;5036847;28;20395;-79
2023/08/29 05:24:20;;;;;;;29.52;21.10;;;15.30;86.20;;;;;;5040551;28;20448;-78
2023/08/29 05:26:47;;;;;;;26.75;19.23;;;15.40;85.00;;;;;;5039223;28;20387;-77
2023/08/29 05:29:12;;;;;;;28.35;19.33;;;15.40;85.00;;;;;;5037375;28;20387;-77
2023/08/29 05:31:38;;;;;;;31.00;19.85;;;15.50;83.20;;;;;;5038155;28;20876;-78
2023/08/29 05:34:04;;;;;;;26.67;18.40;;;15.60;81.20;;;;;;5041690;28;20383;-78
2023/08/29 05:36:29;;;;;;;28.48;18.30;;;15.70;77.80;;;;;;5041315;28;20387;-79
2023/08/29 05:38:55;;;;;;;27.30;19.17;;;15.60;76.60;;;;;;5038702;28;20418;-79
2023/08/29 05:41:25;;;;;;;29.60;18.38;;;15.60;77.40;;;;;;5044103;28;20426;-78
2023/08/29 05:43:50;;;;;;;28.17;18.60;;;15.60;78.20;;;;;;5020421;28;20461;-79
2023/08/29 05:46:16;;;;;;;27.87;18.90;;;15.60;79.40;;;;;;5038020;28;20383;-78
2023/08/29 05:48:41;;;;;;;29.63;19.35;;;15.60;79.60;;;;;;5043227;28;20400;-78
2023/08/29 05:51:07;;;;;;;31.13;18.90;;;15.70;79.20;;;;;;5041413;28;20411;-79
2023/08/29 05:53:32;;;;;;;25.20;18.50;;;15.60;80.40;;;;;;5036764;28;20383;-78
2023/08/29 05:55:58;;;;;;;24.87;17.73;;;15.70;78.20;;;;;;5036772;28;20383;-78
2023/08/29 05:58:25;;;;;;;26.70;18.70;;;15.70;77.20;;;;;;5036649;28;20441;-77
2023/08/29 06:00:51;;;;;;;28.70;18.13;;;15.80;78.00;;;;;;5034529;28;20570;-79
2023/08/29 06:03:16;;;;;;;25.63;17.70;;;15.80;78.00;;;;;;5035982;28;20449;-78
2023/08/29 06:05:42;;;;;;;25.03;17.90;;;15.80;78.50;;;;;;5036573;28;20406;-79
2023/08/29 06:08:08;;;;;;;26.00;17.23;;;16.00;77.00;;;;;;5036304;28;20464;-79
2023/08/29 06:10:34;;;;;;;27.40;17.30;;;16.10;73.40;;;;;;5036343;28;20497;-78
2023/08/29 06:13:00;;;;;;;23.87;16.57;;;16.20;71.90;;;;;;5018530;28;20821;-79
2023/08/29 06:15:26;;;;;;;20.55;15.30;;;16.40;69.00;;;;;;5036317;28;20377;-78
2023/08/29 06:17:51;;;;;;;19.98;15.38;;;16.50;67.10;;;;;;5034801;28;20463;-78
2023/08/29 06:20:17;;;;;;;21.50;15.47;;;16.50;67.30;;;;;;5034550;28;20390;-78
2023/08/29 06:22:43;;;;;;;22.33;14.20;;;16.50;66.80;;;;;;5033720;28;20383;-78
2023/08/29 06:25:09;;;;;;;20.40;14.30;;;16.70;64.00;;;;;;5034378;28;20409;-78
2023/08/29 06:27:36;;;;;;;18.67;13.75;;;16.80;62.30;;;;;;5035417;28;20390;-78
2023/08/29 06:30:02;;;;;;;19.95;13.70;;;16.80;60.10;;;;;;5033417;28;20391;-78
2023/08/29 06:32:27;;;;;;;20.13;13.50;;;16.90;59.50;;;;;;5040107;28;20390;-77
2023/08/29 06:34:53;;;;;;;19.80;13.87;;;16.90;59.80;;;;;;5038963;28;20516;-78
2023/08/29 06:37:20;;;;;;;21.30;13.50;;;16.90;60.30;;;;;;5036101;28;20528;-79
2023/08/29 06:39:45;;;;;;;19.88;12.60;;;17.00;60.00;;;;;;5038496;28;20530;-79
2023/08/29 06:42:11;;;;;;;16.98;13.45;;;17.20;57.30;;;;;;5042516;28;20410;-78
2023/08/29 06:44:36;;;;;;;22.27;13.70;;;17.20;58.00;;;;;;5033947;28;20391;-77
2023/08/29 06:47:02;;;;;;;19.13;12.57;;;17.40;55.60;;;;;;5033503;28;20453;-78
2023/08/29 06:49:28;;;;;;;18.53;13.03;;;17.40;54.10;;;;;;5034138;28;20964;-78
2023/08/29 06:51:53;;;;;;;17.83;12.20;;;17.50;53.90;;;;;;5044061;28;20435;-79
2023/08/29 06:54:19;;;;;;;18.40;13.10;;;17.50;53.20;;;;;;5037966;28;20452;-78
2023/08/29 06:56:45;;;;;;;15.90;12.33;;;17.40;53.90;;;;;;5036232;28;20390;-78
2023/08/29 06:59:14;;;;;;;20.43;12.10;;;17.50;51.60;;;;;;5035744;28;20387;-78
2023/08/29 07:01:40;;;;;;;15.48;12.07;;;17.50;51.30;;;;;;5036229;28;20470;-79
2023/08/29 07:04:06;;;;;;;16.15;11.70;;;17.50;51.80;;;;;;5036484;28;20953;-79
2023/08/29 07:06:32;;;;;;;18.13;11.70;;;17.60;51.00;;;;;;5016042;28;20394;-78
2023/08/29 07:08:58;;;;;;;16.77;11.27;;;17.70;50.80;;;;;;5033499;28;20383;-78
2023/08/29 07:11:23;;;;;;;17.27;11.60;;;17.70;48.70;;;;;;5035351;28;20895;-79
2023/08/29 07:13:49;;;;;;;15.40;11.30;;;17.60;48.70;;;;;;5035885;28;20402;-77
2023/08/29 07:16:14;;;;;;;15.82;11.27;;;17.50;49.50;;;;;;5035739;28;20426;-78
2023/08/29 07:18:40;;;;;;;17.20;12.00;;;17.40;50.10;;;;;;5039142;28;20402;-77
2023/08/29 07:21:06;;;;;;;16.57;11.20;;;17.40;50.50;;;;;;5040231;28;20394;-78
2023/08/29 07:23:31;;;;;;;18.88;12.40;;;17.50;50.30;;;;;;5037493;28;20387;-78
2023/08/29 07:25:58;;;;;;;18.88;13.57;;;17.70;51.60;;;;;;5037050;28;20402;-78
2023/08/29 07:28:23;;;;;;;22.27;14.30;;;17.90;50.40;;;;;;5036614;28;20552;-78
2023/08/29 07:30:51;;;;;;;22.20;13.77;;;18.00;50.10;;;;;;5035636;28;20434;-77
2023/08/29 07:33:17;;;;;;;19.55;13.32;;;18.10;49.30;;;;;;5037125;28;20387;-79
2023/08/29 07:35:44;;;;;;;17.73;12.40;;;18.10;48.50;;;;;;5035134;28;20915;-79
2023/08/29 07:38:10;;;;;;;19.38;12.88;;;18.10;48.80;;;;;;5037340;28;20434;-77
2023/08/29 07:40:36;;;;;;;18.00;12.20;;;18.10;48.20;;;;;;5035228;28;20754;-76
2023/08/29 07:43:06;;;;;;;17.70;10.97;;;18.10;47.70;;;;;;5033313;28;20387;-77
2023/08/29 07:45:33;;;;;;;15.65;11.18;;;18.10;47.30;;;;;;5018626;28;20836;-78
2023/08/29 07:47:59;;;;;;;20.00;11.73;;;18.20;47.50;;;;;;5036818;28;20394;-78
2023/08/29 07:50:25;;;;;;;26.00;14.98;;;18.40;47.40;;;;;;5033559;28;20717;-78
2023/08/29 07:52:50;;;;;;;23.70;15.35;;;18.60;46.70;;;;;;5033153;28;20383;-77
2023/08/29 07:55:16;;;;;;;27.27;14.80;;;18.60;48.20;;;;;;5033402;28;20379;-78
2023/08/29 07:57:42;;;;;;;27.90;16.20;;;18.60;48.60;;;;;;5033629;28;20387;-78
2023/08/29 08:00:10;;;;;;;23.40;16.20;;;18.60;48.40;;;;;;5041500;28;20871;-77
2023/08/29 08:02:38;;;;;;;25.00;15.60;;;18.50;49.60;;;;;;5026692;28;20394;-76
2023/08/29 08:05:11;;;;;;;26.50;16.73;;;18.80;48.00;;;;;;5036914;28;20383;-77
2023/08/29 08:07:38;;;;;;;24.88;16.20;;;18.80;47.10;;;;;;5015375;28;20379;-78
2023/08/29 08:10:04;;;;;;;26.85;15.68;;;18.80;47.30;;;;;;5042176;28;20402;-77
2023/08/29 08:12:31;;;;;;;23.10;14.80;;;18.80;47.10;;;;;;5042342;28;20387;-77
2023/08/29 08:14:57;;;;;;;21.20;15.57;;;19.00;45.80;;;;;;5040722;28;20457;-78
2023/08/29 08:17:22;;;;;;;25.50;15.83;;;18.80;46.20;;;;;;5040159;28;20379;-77
2023/08/29 08:19:48;;;;;;;25.48;16.60;;;18.70;47.20;;;;;;5037614;28;20362;-78
2023/08/29 08:22:14;;;;;;;25.73;16.05;;;18.70;48.90;;;;;;5038691;28;20383;-77
2023/08/29 08:24:40;;;;;;;27.45;16.73;;;18.60;49.20;;;;;;5038880;28;20379;-78
2023/08/29 08:27:07;;;;;;;31.70;16.40;;;18.70;48.90;;;;;;5035625;28;20452;-77
2023/08/29 08:29:33;;;;;;;29.20;16.65;;;18.80;47.30;;;;;;5016989;28;20383;-79
2023/08/29 08:31:58;;;;;;;34.05;18.88;;;18.80;46.50;;;;;;5037615;28;20403;-79
2023/08/29 08:34:24;;;;;;;34.17;20.47;;;18.60;49.40;;;;;;5037647;28;20383;-78
2023/08/29 08:36:49;;;;;;;34.00;20.47;;;18.70;49.20;;;;;;5022263;28;20533;-77
2023/08/29 08:39:15;;;;;;;39.20;22.50;;;18.80;47.10;;;;;;5044289;28;20398;-77
2023/08/29 08:41:42;;;;;;;41.78;24.15;;;18.80;46.50;;;;;;5041682;28;20406;-79
2023/08/29 08:44:09;;;;;;;43.72;24.52;;;19.00;46.20;;;;;;5020350;28;20402;-78
2023/08/29 08:46:35;;;;;;;43.83;25.15;;;18.80;47.90;;;;;;5035718;28;20383;-78
2023/08/29 08:49:02;;;;;;;46.03;25.63;;;18.70;48.00;;;;;;5039084;28;20440;-78
2023/08/29 08:51:30;;;;;;;43.70;23.98;;;18.60;48.40;;;;;;5021152;28;20430;-78
2023/08/29 08:53:56;;;;;;;35.80;23.67;;;18.70;48.70;;;;;;5039275;28;20387;-78
2023/08/29 08:56:23;;;;;;;43.83;25.03;;;18.90;47.20;;;;;;5039053;28;20533;-78
2023/08/29 08:58:49;;;;;;;40.05;24.05;;;19.30;45.20;;;;;;5024680;28;20394;-77
2023/08/29 09:01:15;;;;;;;35.80;20.35;;;19.60;43.40;;;;;;5029495;28;20395;-78
2023/08/29 09:03:42;;;;;;;37.03;20.30;;;19.70;40.10;;;;;;5048170;28;20458;-79
2023/08/29 09:06:09;;;;;;;35.20;21.77;;;19.70;40.40;;;;;;5039463;28;20398;-78
2023/08/29 09:08:36;;;;;;;36.20;22.30;;;19.80;40.40;;;;;;5021633;28;20448;-79
2023/08/29 09:11:03;;;;;;;34.33;21.77;;;19.90;39.90;;;;;;5019247;28;20446;-77
2023/08/29 09:13:30;;;;;;;31.30;19.53;;;20.00;39.60;;;;;;5036924;28;20406;-78
2023/08/29 09:15:58;;;;;;;30.10;20.83;;;20.10;37.90;;;;;;5018579;28;20387;-77
2023/08/29 09:18:25;;;;;;;32.92;19.65;;;20.00;37.40;;;;;;5020037;28;20430;-79
2023/08/29 09:20:54;;;;;;;29.55;17.92;;;20.10;36.90;;;;;;5037748;28;20379;-77
2023/08/29 09:23:25;;;;;;;24.35;16.25;;;20.00;37.90;;;;;;5038330;28;20386;-79
2023/08/29 09:25:55;;;;;;;25.07;16.63;;;19.90;38.20;;;;;;5037868;28;20477;-78
2023/08/29 09:28:22;;;;;;;23.45;15.05;;;19.70;37.90;;;;;;5037736;28;20391;-76
2023/08/29 09:30:48;;;;;;;23.58;15.15;;;19.80;36.90;;;;;;5037781;28;20417;-79
2023/08/29 09:33:20;;;;;;;21.15;15.18;;;20.10;37.10;;;;;;5037067;28;20437;-79
2023/08/29 09:35:46;;;;;;;21.02;12.70;;;20.20;36.10;;;;;;5037091;28;20795;-77
2023/08/29 09:38:12;;;;;;;20.60;12.33;;;20.00;35.60;;;;;;5045662;28;20471;-77
2023/08/29 09:40:46;;;;;;;22.25;12.65;;;20.00;35.00;;;;;;5042236;28;20394;-75
2023/08/29 09:43:15;;;;;;;24.17;14.30;;;20.20;34.90;;;;;;5048574;28;20604;-77
2023/08/29 09:45:41;;;;;;;28.80;14.35;;;20.20;35.40;;;;;;5030290;28;20398;-77
2023/08/29 09:48:08;;;;;;;30.20;14.05;;;20.10;35.30;;;;;;5042994;28;20391;-79
2023/08/29 09:50:37;;;;;;;23.13;13.50;;;20.20;35.00;;;;;;5020581;28;20413;-78
2023/08/29 09:53:03;;;;;;;23.63;12.98;;;20.20;34.50;;;;;;5022098;28;20690;-79
2023/08/29 09:55:38;;;;;;;21.83;11.60;;;20.40;34.10;;;;;;5022515;28;20417;-78
2023/08/29 09:58:05;;;;;;;19.38;12.35;;;20.50;33.70;;;;;;5020587;28;20380;-78
2023/08/29 10:00:34;;;;;;;22.42;13.38;;;20.40;33.40;;;;;;5037556;28;20941;-78
2023/08/29 10:03:04;;;;;;;20.10;13.23;;;20.50;34.20;;;;;;5038446;28;20474;-79
2023/08/29 10:05:33;;;;;;;24.30;14.00;;;20.80;33.80;;;;;;5037946;28;20704;-79
2023/08/29 10:08:06;;;;;;;24.85;15.55;;;21.30;31.70;;;;;;5037735;28;20501;-79
2023/08/29 10:10:34;;;;;;;22.05;15.73;;;21.50;30.80;;;;;;5037640;28;20399;-78
2023/08/29 10:13:02;;;;;;;33.10;15.63;;;21.70;29.50;;;;;;5019076;28;20962;-79
2023/08/29 10:15:29;;;;;;;29.27;19.77;;;21.10;30.90;;;;;;5037481;28;20452;-79
2023/08/29 10:17:55;;;;;;;28.88;19.35;;;20.80;32.00;;;;;;5037967;28;20832;-79
2023/08/29 10:20:22;;;;;;;28.95;17.15;;;20.90;32.30;;;;;;5037765;28;20479;-78
2023/08/29 10:22:48;;;;;;;24.00;15.63;;;21.00;31.10;;;;;;5036048;28;20898;-78
2023/08/29 10:25:14;;;;;;;19.67;13.93;;;20.90;31.60;;;;;;5035538;28;20384;-80
2023/08/29 10:27:41;;;;;;;18.48;9.80;;;20.70;31.50;;;;;;5035269;28;20417;-79
2023/08/29 10:30:08;;;;;;;17.10;10.60;;;20.50;32.00;;;;;;5036044;28;20388;-77
2023/08/29 10:32:35;;;;;;;19.08;12.68;;;20.50;32.90;;;;;;5042484;28;20972;-78
2023/08/29 10:35:01;;;;;;;24.85;16.63;;;20.40;33.10;;;;;;5044253;28;20447;-77
2023/08/29 10:37:29;;;;;;;20.27;13.50;;;20.50;33.70;;;;;;5041591;28;20418;-76
2023/08/29 10:40:11;;;;;;;17.95;11.02;;;20.60;32.00;;;;;;5040912;28;20864;-77
2023/08/29 10:43:18;;;;;;;13.07;9.20;;;20.60;32.60;;;;;;5043099;28;20380;-77
2023/08/29 10:46:10;;;;;;;12.52;8.65;;;20.70;30.10;;;;;;5007408;28;20394;-78
2023/08/29 10:48:38;;;;;;;11.50;7.60;;;20.80;29.90;;;;;;5038981;28;20752;-77
2023/08/29 10:51:07;;;;;;;10.25;6.00;;;20.80;29.00;;;;;;5038265;28;20501;-78
2023/08/29 10:53:37;;;;;;;11.07;6.72;;;21.00;29.00;;;;;;5017970;28;20945;-77
2023/08/29 10:56:07;;;;;;;10.02;5.90;;;21.40;27.80;;;;;;5039762;28;20426;-77
2023/08/29 10:58:34;;;;;;;7.57;5.30;;;21.80;26.80;;;;;;5046352;28;20405;-77
2023/08/29 11:01:01;;;;;;;9.95;6.70;;;22.20;24.80;;;;;;5049254;28;20379;-76
2023/08/29 11:03:40;;;;;;;10.93;6.37;;;22.50;23.60;;;;;;5047070;28;20534;-77
2023/08/29 11:06:06;;;;;;;9.23;7.85;;;22.50;24.10;;;;;;5027498;28;20486;-78
2023/08/29 11:08:31;;;;;;;12.05;9.00;;;22.40;23.80;;;;;;5027907;28;20387;-77
2023/08/29 11:11:18;;;;;;;9.50;8.50;;;22.60;23.80;;;;;;5025387;28;20930;-76
2023/08/29 11:13:57;;;;;;;13.30;9.70;;;22.70;23.60;;;;;;5037177;28;20399;-78
2023/08/29 11:16:23;;;;;;;12.50;8.87;;;22.90;23.00;;;;;;5037946;28;20387;-77
2023/08/29 11:19:00;;;;;;;13.00;8.43;;;23.00;22.60;;;;;;5036683;28;20421;-78
2023/08/29 11:21:28;;;;;;;7.82;6.70;;;23.30;22.80;;;;;;5039838;28;20383;-79
2023/08/29 11:23:55;;;;;;;8.95;7.20;;;23.20;22.70;;;;;;5040599;28;20386;-78
2023/08/29 11:26:23;;;;;;;9.18;7.10;;;23.10;21.70;;;;;;5025268;28;20929;-76
2023/08/29 11:28:49;;;;;;;9.10;7.05;;;23.10;22.10;;;;;;5043854;28;20383;-80
2023/08/29 11:31:18;;;;;;;10.60;6.10;;;22.90;22.60;;;;;;5039628;28;20408;-78
2023/08/29 11:33:48;;;;;;;9.05;5.40;;;22.70;22.80;;;;;;5051351;28;20402;-76
2023/08/29 11:36:15;;;;;;;9.50;5.45;;;22.50;24.30;;;;;;5044266;28;20375;-78
2023/08/29 11:38:43;;;;;;;6.93;5.50;;;22.30;24.90;;;;;;5045109;28;20508;-78
2023/08/29 11:41:10;;;;;;;10.40;7.15;;;22.00;25.00;;;;;;5045220;28;20391;-78
2023/08/29 11:43:36;;;;;;;6.70;5.90;;;21.80;24.90;;;;;;5045286;28;20374;-79
2023/08/29 11:46:03;;;;;;;7.88;6.82;;;21.90;25.70;;;;;;5049005;28;20391;-78
2023/08/29 11:48:30;;;;;;;7.20;6.00;;;21.90;25.30;;;;;;5052001;28;20382;-76
2023/08/29 11:51:01;;;;;;;8.73;6.10;;;22.00;24.40;;;;;;5051352;28;20441;-78
2023/08/29 11:53:30;;;;;;;6.35;4.68;;;22.20;23.60;;;;;;5052844;28;20395;-77
2023/08/29 11:55:57;;;;;;;5.60;3.90;;;22.50;23.50;;;;;;5053432;28;20378;-76
2023/08/29 11:58:36;;;;;;;6.35;3.90;;;22.60;21.00;;;;;;5054165;28;20402;-79
2023/08/29 12:01:07;;;;;;;8.55;4.30;;;22.80;22.20;;;;;;5054385;28;20394;-77
2023/08/29 12:03:38;;;;;;;8.27;3.78;;;23.10;21.10;;;;;;5055294;28;20399;-75
2023/08/29 12:06:13;;;;;;;5.78;3.72;;;23.70;20.10;;;;;;5037465;28;20442;-78
2023/08/29 12:08:40;;;;;;;15.32;6.43;;;24.00;19.90;;;;;;5036372;28;20391;-78
2023/08/29 12:11:06;;;;;;;8.65;5.50;;;24.10;19.60;;;;;;5032024;28;20525;-76
2023/08/29 12:13:34;;;;;;;10.00;4.47;;;24.00;18.90;;;;;;5054257;28;20529;-78
2023/08/29 12:16:13;;;;;;;6.10;3.50;;;24.10;18.50;;;;;;5037435;28;20432;-77
2023/08/29 12:18:39;;;;;;;7.93;3.50;;;24.30;17.50;;;;;;5036553;28;20418;-78
2023/08/29 12:21:12;;;;;;;4.33;2.23;;;23.70;17.80;;;;;;5045965;28;20379;-76
2023/08/29 12:23:39;;;;;;;5.35;2.95;;;23.20;17.40;;;;;;5050370;28;20374;-77
2023/08/29 12:26:05;;;;;;;5.97;4.00;;;23.30;18.00;;;;;;5024553;28;20391;-76
2023/08/29 12:28:31;;;;;;;6.20;3.17;;;23.60;18.60;;;;;;5053360;28;20628;-77
2023/08/29 12:30:56;;;;;;;8.80;2.97;;;23.40;18.70;;;;;;5034167;28;20464;-79